createdAt,value
2018-01-30T00:01:57.012Z,91.70
2018-01-30T00:04:24.691Z,92.17
2018-01-30T00:06:52.465Z,92.43
2018-01-30T00:09:20.183Z,93.08
2018-01-30T00:11:47.992Z,92.45
2018-01-30T00:14:16.003Z,92.50
2018-01-30T00:16:44.021Z,92.33
2018-01-30T00:19:11.911Z,92.64
2018-01-30T00:21:39.926Z,92.33
2018-01-30T00:24:08.653Z,93.42
2018-01-30T00:26:36.714Z,94.06
2018-01-30T00:29:04.830Z,93.45
2018-01-30T00:31:32.665Z,93.18
2018-01-30T00:34:00.531Z,93.63
2018-01-30T00:36:28.984Z,93.39
2018-01-30T00:38:57.915Z,94.58
2018-01-30T00:41:25.877Z,94.06
2018-01-30T00:43:53.977Z,93.80
2018-01-30T00:46:22.018Z,93.75
2018-01-30T00:48:50.016Z,93.10
2018-01-30T00:51:17.934Z,94.06
2018-01-30T00:53:45.850Z,95.10
2018-01-30T00:56:13.792Z,94.91
2018-01-30T00:58:41.761Z,93.65
2018-01-30T01:01:09.576Z,93.89
2018-01-30T01:03:38.040Z,94.42
2018-01-30T01:06:05.957Z,94.61
2018-01-30T01:08:33.947Z,94.85
2018-01-30T01:11:01.725Z,95.18
2018-01-30T01:13:29.486Z,95.40
2018-01-30T01:15:57.553Z,95.77
2018-01-30T01:18:26.438Z,95.91
2018-01-30T01:20:54.511Z,95.66
2018-01-30T01:23:22.583Z,95.82
2018-01-30T01:25:50.468Z,96.24
2018-01-30T01:28:18.508Z,96.53
2018-01-30T01:30:46.303Z,96.61
2018-01-30T01:33:14.363Z,95.34
2018-01-30T01:35:42.389Z,94.73
2018-01-30T01:38:10.254Z,94.49
2018-01-30T01:40:39.086Z,94.49
2018-01-30T01:43:07.088Z,94.97
2018-01-30T01:45:35.727Z,95.70
2018-01-30T01:48:03.798Z,95.91
2018-01-30T01:50:31.661Z,95.72
2018-01-30T01:53:00.372Z,96.10
2018-01-30T01:55:29.260Z,95.32
2018-01-30T01:57:57.161Z,95.18
2018-01-30T02:00:25.081Z,95.15
2018-01-30T02:02:53.270Z,95.11
2018-01-30T02:05:21.145Z,95.54
2018-01-30T02:07:48.911Z,95.90
2018-01-30T02:10:16.831Z,95.86
2018-01-30T02:12:44.790Z,95.76
2018-01-30T02:15:12.660Z,95.15
2018-01-30T02:17:41.190Z,95.23
2018-01-30T02:20:09.093Z,95.28
2018-01-30T02:22:37.128Z,95.57
2018-01-30T02:25:05.041Z,95.60
2018-01-30T02:27:33.020Z,95.10
2018-01-30T02:30:01.115Z,95.17
2018-01-30T02:32:28.852Z,95.43
2018-01-30T02:34:57.445Z,94.58
2018-01-30T02:37:25.151Z,94.42
2018-01-30T02:39:53.023Z,94.27
2018-01-30T02:42:21.021Z,93.70
2018-01-30T02:44:48.758Z,93.01
2018-01-30T02:47:16.850Z,92.45
2018-01-30T02:49:44.902Z,92.74
2018-01-30T02:52:12.969Z,92.46
2018-01-30T02:54:40.945Z,92.43
2018-01-30T02:57:08.874Z,92.70
2018-01-30T02:59:36.882Z,93.13
2018-01-30T03:02:04.956Z,93.44
2018-01-30T03:04:32.873Z,93.59
2018-01-30T03:07:00.764Z,93.10
2018-01-30T03:09:28.658Z,92.30
2018-01-30T03:11:56.773Z,91.95
2018-01-30T03:14:24.904Z,91.00
2018-01-30T03:16:52.832Z,91.79
2018-01-30T03:19:20.842Z,92.30
2018-01-30T03:21:48.911Z,91.46
2018-01-30T03:24:16.914Z,91.74
2018-01-30T03:26:44.951Z,92.09
2018-01-30T03:29:13.842Z,92.84
2018-01-30T03:31:41.710Z,92.98
2018-01-30T03:34:09.696Z,93.11
2018-01-30T03:36:38.396Z,93.34
2018-01-30T03:39:06.285Z,93.76
2018-01-30T03:41:35.109Z,93.58
2018-01-30T03:44:02.847Z,93.59
2018-01-30T03:46:30.677Z,93.55
2018-01-30T03:48:58.340Z,94.07
2018-01-30T03:51:26.009Z,94.35
2018-01-30T03:53:53.727Z,94.38
2018-01-30T03:56:21.680Z,93.95
2018-01-30T03:58:49.788Z,93.78
2018-01-30T04:01:17.787Z,94.14
2018-01-30T04:03:45.711Z,93.88
2018-01-30T04:06:13.594Z,93.48
2018-01-30T04:08:41.541Z,93.70
2018-01-30T04:11:09.631Z,94.06
2018-01-30T04:13:37.650Z,94.32
2018-01-30T04:16:05.764Z,94.75
2018-01-30T04:18:33.547Z,95.19
2018-01-30T04:21:01.244Z,95.18
2018-01-30T04:23:29.077Z,94.80
2018-01-30T04:25:57.146Z,94.56
2018-01-30T04:28:24.871Z,94.23
2018-01-30T04:30:52.556Z,93.90
2018-01-30T04:33:20.243Z,94.03
2018-01-30T04:35:48.319Z,94.55
2018-01-30T04:38:16.347Z,95.48
2018-01-30T04:40:44.446Z,95.26
2018-01-30T04:43:12.504Z,94.53
2018-01-30T04:45:40.270Z,94.86
2018-01-30T04:48:08.946Z,94.56
2018-01-30T04:50:36.752Z,94.55
2018-01-30T04:53:04.805Z,94.33
2018-01-30T04:55:32.878Z,94.73
2018-01-30T04:58:00.810Z,95.00
2018-01-30T05:00:29.637Z,94.91
2018-01-30T05:02:57.690Z,94.92
2018-01-30T05:05:25.758Z,94.73
2018-01-30T05:07:54.599Z,94.95
2018-01-30T05:10:22.746Z,95.79
2018-01-30T05:12:50.738Z,95.95
2018-01-30T05:15:18.651Z,96.04
2018-01-30T05:17:46.467Z,96.25
2018-01-30T05:20:14.622Z,95.66
2018-01-30T05:22:42.551Z,95.03
2018-01-30T05:25:10.418Z,95.12
2018-01-30T05:27:38.427Z,94.56
2018-01-30T05:30:06.556Z,94.94
2018-01-30T05:32:34.675Z,94.82
2018-01-30T05:35:02.539Z,95.14
2018-01-30T05:37:30.601Z,95.43
2018-01-30T05:39:58.668Z,94.80
2018-01-30T05:42:28.908Z,94.80
2018-01-30T05:44:56.908Z,95.01
2018-01-30T05:47:24.748Z,94.58
2018-01-30T05:49:52.563Z,94.92
2018-01-30T05:52:20.655Z,95.13
2018-01-30T05:54:49.472Z,95.32
2018-01-30T05:57:17.646Z,94.88
2018-01-30T05:59:45.525Z,94.65
2018-01-30T06:02:13.589Z,94.31
2018-01-30T06:04:41.740Z,94.34
2018-01-30T06:07:09.607Z,94.29
2018-01-30T06:09:38.474Z,94.35
2018-01-30T06:12:06.218Z,94.02
2018-01-30T06:14:34.106Z,94.24
2018-01-30T06:17:02.021Z,94.53
2018-01-30T06:19:30.023Z,94.77
2018-01-30T06:21:57.955Z,94.54
2018-01-30T06:24:25.876Z,94.15
2018-01-30T06:26:53.895Z,94.04
2018-01-30T06:29:21.938Z,94.31
2018-01-30T06:31:49.871Z,94.26
2018-01-30T06:34:18.097Z,93.99
2018-01-30T06:36:47.388Z,93.76
2018-01-30T06:39:15.353Z,93.71
2018-01-30T06:41:43.444Z,93.66
2018-01-30T06:44:11.333Z,91.74
2018-01-30T06:46:39.254Z,91.99
2018-01-30T06:49:07.054Z,90.87
2018-01-30T06:51:35.112Z,88.78
2018-01-30T06:54:03.962Z,88.86
2018-01-30T06:56:31.682Z,90.69
2018-01-30T06:58:59.757Z,92.00
2018-01-30T07:01:28.099Z,88.89
2018-01-30T07:03:56.101Z,88.68
2018-01-30T07:06:24.040Z,90.20
2018-01-30T07:08:51.960Z,88.63
2018-01-30T07:11:19.998Z,88.73
2018-01-30T07:13:48.078Z,88.97
2018-01-30T07:16:16.770Z,88.89
2018-01-30T07:18:44.447Z,88.59
2018-01-30T07:21:12.673Z,89.18
2018-01-30T07:23:40.781Z,88.13
2018-01-30T07:26:08.472Z,87.49
2018-01-30T07:28:36.274Z,89.04
2018-01-30T07:31:04.023Z,88.62
2018-01-30T07:33:31.772Z,88.62
2018-01-30T07:35:59.536Z,86.24
2018-01-30T07:38:27.269Z,85.94
2018-01-30T07:40:55.058Z,85.69
2018-01-30T07:43:22.778Z,84.51
2018-01-30T07:45:50.661Z,84.55
2018-01-30T07:48:18.336Z,84.96
2018-01-30T07:50:46.098Z,84.85
2018-01-30T07:53:13.775Z,84.00
2018-01-30T07:55:41.540Z,83.44
2018-01-30T07:58:09.247Z,83.23
2018-01-30T08:00:37.062Z,82.86
2018-01-30T08:03:04.808Z,82.77
2018-01-30T08:05:32.531Z,82.93
2018-01-30T08:08:00.288Z,84.32
2018-01-30T08:10:29.540Z,83.95
2018-01-30T08:12:57.328Z,85.83
2018-01-30T08:15:25.029Z,85.68
2018-01-30T08:17:52.759Z,83.20
2018-01-30T08:20:20.439Z,83.81
2018-01-30T08:22:48.184Z,83.57
2018-01-30T08:25:16.161Z,83.09
2018-01-30T08:27:43.933Z,84.82
2018-01-30T08:30:11.654Z,81.96
2018-01-30T08:32:40.509Z,83.00
2018-01-30T08:35:08.284Z,84.12
2018-01-30T08:37:35.974Z,85.48
2018-01-30T08:40:03.788Z,85.07
2018-01-30T08:42:31.467Z,82.63
2018-01-30T08:44:59.187Z,83.83
2018-01-30T08:47:26.992Z,84.86
2018-01-30T08:49:54.795Z,87.14
2018-01-30T08:52:22.555Z,86.85
2018-01-30T08:54:50.237Z,85.44
2018-01-30T08:57:18.492Z,85.76
2018-01-30T08:59:46.242Z,86.08
2018-01-30T09:02:13.988Z,86.48
2018-01-30T09:04:41.950Z,86.00
2018-01-30T09:07:09.654Z,85.84
2018-01-30T09:09:37.456Z,85.16
2018-01-30T09:12:05.228Z,85.64
2018-01-30T09:14:32.901Z,85.98
2018-01-30T09:17:00.650Z,85.32
2018-01-30T09:19:28.365Z,85.60
2018-01-30T09:21:56.076Z,85.65
2018-01-30T09:24:23.772Z,85.20
2018-01-30T09:26:51.497Z,84.20
2018-01-30T09:29:19.242Z,83.56
2018-01-30T09:31:47.007Z,83.52
2018-01-30T09:34:14.831Z,80.43
2018-01-30T09:36:42.658Z,83.23
2018-01-30T09:39:10.334Z,82.99
2018-01-30T09:41:38.040Z,83.28
2018-01-30T09:44:05.773Z,84.08
2018-01-30T09:46:33.486Z,83.80
2018-01-30T09:49:01.207Z,83.02
2018-01-30T09:51:28.897Z,82.46
2018-01-30T09:53:56.639Z,82.69
2018-01-30T09:56:24.582Z,82.12
2018-01-30T09:58:52.296Z,80.56
2018-01-30T10:01:20.149Z,79.36
2018-01-30T10:03:47.893Z,77.29
2018-01-30T10:06:15.650Z,76.95
2018-01-30T10:08:43.426Z,74.56
2018-01-30T10:11:11.250Z,76.92
2018-01-30T10:13:39.210Z,77.20
2018-01-30T10:16:06.914Z,77.53
2018-01-30T10:18:34.663Z,75.06
2018-01-30T10:21:02.589Z,75.17
2018-01-30T10:23:32.910Z,74.39
2018-01-30T10:26:01.577Z,68.42
2018-01-30T10:28:30.416Z,68.56
2018-01-30T10:30:58.385Z,67.88
2018-01-30T10:33:26.446Z,68.05
2018-01-30T10:35:54.393Z,67.13
2018-01-30T10:38:22.288Z,67.81
2018-01-30T10:40:50.257Z,67.12
2018-01-30T10:43:18.293Z,65.61
2018-01-30T10:45:46.385Z,64.85
2018-01-30T10:48:14.471Z,64.46
2018-01-30T10:50:42.744Z,65.05
2018-01-30T10:53:10.764Z,64.90
2018-01-30T10:55:38.831Z,64.14
2018-01-30T10:58:07.573Z,63.02
2018-01-30T11:00:35.444Z,62.69
2018-01-30T11:03:03.606Z,63.83
2018-01-30T11:05:31.596Z,63.16
2018-01-30T11:08:00.612Z,62.28
2018-01-30T11:10:28.635Z,63.34
2018-01-30T11:12:56.576Z,61.35
2018-01-30T11:15:24.466Z,59.99
2018-01-30T11:17:52.358Z,59.02
2018-01-30T11:20:21.256Z,58.78
2018-01-30T11:22:49.246Z,58.32
2018-01-30T11:25:17.287Z,58.08
2018-01-30T11:27:45.330Z,57.39
2018-01-30T11:30:13.395Z,57.87
2018-01-30T11:32:41.485Z,57.70
2018-01-30T11:35:10.395Z,57.84
2018-01-30T11:37:38.422Z,57.43
2018-01-30T11:40:06.231Z,58.64
2018-01-30T11:42:34.409Z,58.30
2018-01-30T11:45:02.275Z,58.03
2018-01-30T11:47:30.351Z,57.91
2018-01-30T11:49:58.518Z,58.60
2018-01-30T11:52:26.575Z,59.16
2018-01-30T11:54:54.288Z,58.05
2018-01-30T11:57:22.095Z,59.53
2018-01-30T11:59:49.827Z,60.15
2018-01-30T12:02:17.553Z,60.59
2018-01-30T12:04:45.320Z,62.46
2018-01-30T12:07:13.121Z,62.16
2018-01-30T12:09:42.212Z,62.30
2018-01-30T12:12:09.943Z,61.70
2018-01-30T12:14:37.682Z,61.02
2018-01-30T12:17:05.385Z,60.94
2018-01-30T12:19:33.135Z,60.67
2018-01-30T12:22:00.913Z,59.59
2018-01-30T12:24:28.621Z,60.39
2018-01-30T12:26:56.437Z,58.77
2018-01-30T12:29:24.139Z,58.05
2018-01-30T12:31:51.893Z,59.13
2018-01-30T12:34:19.572Z,57.84
2018-01-30T12:36:47.409Z,58.72
2018-01-30T12:39:15.105Z,57.92
2018-01-30T12:41:42.890Z,58.18
2018-01-30T12:44:10.678Z,60.10
2018-01-30T12:46:38.451Z,60.78
2018-01-30T12:49:06.146Z,59.22
2018-01-30T12:51:34.939Z,59.70
2018-01-30T12:54:03.098Z,59.17
2018-01-30T12:56:30.994Z,59.99
2018-01-30T12:58:58.859Z,59.07
2018-01-30T13:01:27.553Z,59.39
2018-01-30T13:03:55.724Z,57.88
2018-01-30T13:06:23.486Z,58.43
2018-01-30T13:08:51.237Z,61.46
2018-01-30T13:11:19.009Z,61.48
2018-01-30T13:13:46.698Z,61.50
2018-01-30T13:16:14.721Z,60.97
2018-01-30T13:18:42.437Z,60.75
2018-01-30T13:21:10.204Z,62.58
2018-01-30T13:23:37.946Z,63.02
2018-01-30T13:26:05.661Z,64.22
2018-01-30T13:28:33.427Z,63.25
2018-01-30T13:31:01.181Z,63.74
2018-01-30T13:33:28.954Z,65.10
2018-01-30T13:35:56.742Z,65.00
2018-01-30T13:38:24.496Z,65.88
2018-01-30T13:40:52.266Z,65.56
2018-01-30T13:43:20.074Z,64.72
2018-01-30T13:45:47.794Z,64.67
2018-01-30T13:48:15.620Z,64.82
2018-01-30T13:50:44.553Z,64.78
2018-01-30T13:53:12.273Z,65.58
2018-01-30T13:55:40.010Z,65.38
2018-01-30T13:58:07.717Z,65.47
2018-01-30T14:00:35.545Z,66.65
2018-01-30T14:03:04.352Z,66.87
2018-01-30T14:05:33.018Z,67.95
2018-01-30T14:08:01.185Z,68.01
2018-01-30T14:10:28.945Z,67.85
2018-01-30T14:12:56.677Z,69.25
2018-01-30T14:15:24.498Z,68.98
2018-01-30T14:17:52.174Z,68.85
2018-01-30T14:20:19.977Z,70.15
2018-01-30T14:22:47.726Z,69.37
2018-01-30T14:25:15.511Z,69.64
2018-01-30T14:27:44.148Z,69.20
2018-01-30T14:30:11.964Z,69.81
2018-01-30T14:32:39.625Z,69.64
2018-01-30T14:35:07.768Z,70.51
2018-01-30T14:37:35.598Z,70.61
2018-01-30T14:40:03.426Z,70.39
2018-01-30T14:42:31.296Z,71.47
2018-01-30T14:44:59.003Z,72.10
2018-01-30T14:47:26.780Z,72.50
2018-01-30T14:49:54.590Z,72.36
2018-01-30T14:52:22.353Z,72.73
2018-01-30T14:54:50.110Z,73.96
2018-01-30T14:57:17.780Z,73.16
2018-01-30T14:59:45.534Z,73.02
2018-01-30T15:02:13.262Z,72.05
2018-01-30T15:04:41.155Z,71.68
2018-01-30T15:07:08.850Z,72.66
2018-01-30T15:09:36.653Z,72.74
2018-01-30T15:12:04.842Z,73.47
2018-01-30T15:14:32.656Z,75.11
2018-01-30T15:17:00.476Z,75.83
2018-01-30T15:19:28.253Z,76.31
2018-01-30T15:21:57.302Z,77.17
2018-01-30T15:24:25.114Z,76.68
2018-01-30T15:26:52.942Z,75.92
2018-01-30T15:29:20.690Z,74.52
2018-01-30T15:31:48.557Z,76.39
2018-01-30T15:34:16.722Z,77.67
2018-01-30T15:36:44.492Z,77.51
2018-01-30T15:39:12.198Z,77.13
2018-01-30T15:41:41.064Z,77.84
2018-01-30T15:44:08.821Z,77.92
2018-01-30T15:46:36.516Z,79.02
2018-01-30T15:49:04.276Z,79.34
2018-01-30T15:51:32.058Z,79.42
2018-01-30T15:53:59.759Z,79.31
2018-01-30T15:56:27.518Z,79.02
2018-01-30T15:58:55.359Z,79.87
2018-01-30T16:01:24.524Z,79.68
2018-01-30T16:03:52.551Z,82.29
2018-01-30T16:06:20.477Z,81.07
2018-01-30T16:08:48.170Z,80.41
2018-01-30T16:11:16.048Z,80.92
2018-01-30T16:13:43.893Z,81.33
2018-01-30T16:16:11.726Z,81.83
2018-01-30T16:18:39.447Z,81.42
2018-01-30T16:21:07.340Z,81.61
2018-01-30T16:23:35.058Z,81.72
2018-01-30T16:26:02.876Z,82.07
2018-01-30T16:28:30.662Z,81.66
2018-01-30T16:30:58.408Z,82.36
2018-01-30T16:33:26.138Z,82.39
2018-01-30T16:35:53.944Z,82.89
2018-01-30T16:38:21.625Z,82.60
2018-01-30T16:40:50.463Z,82.94
2018-01-30T16:43:18.328Z,85.03
2018-01-30T16:45:46.163Z,84.55
2018-01-30T16:50:47.939Z,84.36
2018-01-30T16:53:15.663Z,85.46
2018-01-30T16:55:43.522Z,85.86
2018-01-30T16:58:11.401Z,84.92
2018-01-30T17:00:39.245Z,84.22
2018-01-30T17:03:07.207Z,84.50
2018-01-30T17:05:35.083Z,84.59
2018-01-30T17:08:03.313Z,84.26
2018-01-30T17:10:32.221Z,84.42
2018-01-30T17:13:01.454Z,85.03
2018-01-30T17:15:29.469Z,85.33
2018-01-30T17:17:58.724Z,85.70
2018-01-30T17:20:26.678Z,85.51
2018-01-30T17:22:55.953Z,85.10
2018-01-30T17:25:24.488Z,84.85
2018-01-30T17:27:52.379Z,84.83
2018-01-30T17:30:20.668Z,84.79
2018-01-30T17:32:48.578Z,84.92
2018-01-30T17:35:16.580Z,84.74
2018-01-30T17:37:44.702Z,85.00
2018-01-30T17:40:12.760Z,84.91
2018-01-30T17:42:40.824Z,85.54
2018-01-30T17:45:08.611Z,86.03
2018-01-30T17:47:36.355Z,86.19
2018-01-30T17:50:05.296Z,87.45
2018-01-30T17:52:33.316Z,87.03
2018-01-30T17:55:01.899Z,86.50
2018-01-30T17:57:29.664Z,86.84
2018-01-30T17:59:57.449Z,87.02
2018-01-30T18:02:25.287Z,87.27
2018-01-30T18:04:53.032Z,87.08
2018-01-30T18:07:20.774Z,87.04
2018-01-30T18:09:48.796Z,86.69
2018-01-30T18:12:16.662Z,86.67
2018-01-30T18:14:44.824Z,86.67
2018-01-30T18:17:12.599Z,86.63
2018-01-30T18:19:41.045Z,86.79
2018-01-30T18:22:09.332Z,87.30
2018-01-30T18:24:38.072Z,87.66
2018-01-30T18:27:06.120Z,87.36
2018-01-30T18:29:34.129Z,87.19
2018-01-30T18:32:02.155Z,88.22
2018-01-30T18:34:30.211Z,88.89
2018-01-30T18:36:58.199Z,88.31
2018-01-30T18:39:26.687Z,87.92
2018-01-30T18:41:54.636Z,88.19
2018-01-30T18:44:22.587Z,89.07
2018-01-30T18:46:50.584Z,88.43
2018-01-30T18:49:18.581Z,88.02
2018-01-30T18:51:46.736Z,87.72
2018-01-30T18:54:15.689Z,88.52
2018-01-30T18:56:43.423Z,88.53
2018-01-30T18:59:11.276Z,88.62
2018-01-30T19:01:39.151Z,87.98
2018-01-30T19:04:07.404Z,87.85
2018-01-30T19:06:36.558Z,88.12
2018-01-30T19:09:05.476Z,88.21
2018-01-30T19:11:33.663Z,88.49
2018-01-30T19:14:01.740Z,88.49
2018-01-30T19:16:30.602Z,88.66
2018-01-30T19:18:59.256Z,89.00
2018-01-30T19:21:27.084Z,88.92
2018-01-30T19:23:56.445Z,89.05
2018-01-30T19:26:24.250Z,88.35
2018-01-30T19:28:51.967Z,88.22
2018-01-30T19:31:19.735Z,87.89
2018-01-30T19:33:47.453Z,89.11
2018-01-30T19:36:15.274Z,88.78
2018-01-30T19:38:43.074Z,88.61
2018-01-30T19:41:11.006Z,89.06
2018-01-30T19:43:38.893Z,87.82
2018-01-30T19:46:07.160Z,88.40
2018-01-30T19:48:35.119Z,88.49
2018-01-30T19:51:03.820Z,88.68
2018-01-30T19:53:32.506Z,88.92
2018-01-30T19:56:01.048Z,88.21
2018-01-30T19:58:31.382Z,88.89
2018-01-30T20:01:01.458Z,88.60
2018-01-30T20:03:29.834Z,88.65
2018-01-30T20:05:57.794Z,88.68
2018-01-30T20:08:25.733Z,88.35
2018-01-30T20:10:54.676Z,89.53
2018-01-30T20:13:23.238Z,89.41
2018-01-30T20:15:51.217Z,89.25
2018-01-30T20:18:18.979Z,89.53
2018-01-30T20:23:37.896Z,89.63
2018-01-30T20:26:05.713Z,90.25
2018-01-30T20:28:33.506Z,90.11
2018-01-30T20:31:01.366Z,89.84
2018-01-30T20:33:29.198Z,89.30
2018-01-30T20:35:57.029Z,89.47
2018-01-30T20:38:24.810Z,89.47
2018-01-30T20:40:52.676Z,89.12
2018-01-30T20:43:20.465Z,88.75
2018-01-30T20:45:48.307Z,89.16
2018-01-30T20:48:16.097Z,88.94
2018-01-30T20:50:43.958Z,89.28
2018-01-30T20:53:11.690Z,89.17
2018-01-30T20:55:39.511Z,89.05
2018-01-30T20:58:07.425Z,89.50
2018-01-30T21:00:35.234Z,89.99
2018-01-30T21:03:02.957Z,89.86
2018-01-30T21:05:30.709Z,89.87
2018-01-30T21:07:58.538Z,90.74
2018-01-30T21:10:26.344Z,90.39
2018-01-30T21:12:54.168Z,89.13
2018-01-30T21:15:21.963Z,90.84
2018-01-30T21:17:49.685Z,90.12
2018-01-30T21:20:17.511Z,89.83
2018-01-30T21:22:45.260Z,90.23
2018-01-30T21:25:12.972Z,90.88
2018-01-30T21:27:40.776Z,92.20
2018-01-30T21:30:08.476Z,94.27
2018-01-30T21:32:36.232Z,93.65
2018-01-30T21:35:04.016Z,94.39
2018-01-30T21:37:31.794Z,94.11
2018-01-30T21:39:59.571Z,93.42
2018-01-30T21:42:27.340Z,91.73
2018-01-30T21:44:55.130Z,91.14
2018-01-30T21:47:22.912Z,91.19
2018-01-30T21:49:50.731Z,91.28
2018-01-30T21:52:18.512Z,91.34
2018-01-30T21:54:46.240Z,91.68
2018-01-30T21:57:13.953Z,91.71
2018-01-30T21:59:41.717Z,92.00
2018-01-30T22:02:09.419Z,92.16
2018-01-30T22:04:37.178Z,92.10
2018-01-30T22:07:04.966Z,92.25
2018-01-30T22:09:32.626Z,92.23
2018-01-30T22:12:00.301Z,92.14
2018-01-30T22:14:28.088Z,91.98
2018-01-30T22:16:55.872Z,92.07
2018-01-30T22:19:23.553Z,92.15
2018-01-30T22:21:51.299Z,92.58
2018-01-30T22:24:19.155Z,92.62
2018-01-30T22:26:46.982Z,92.75
2018-01-30T22:29:14.982Z,93.03
2018-01-30T22:31:42.774Z,93.39
2018-01-30T22:34:10.533Z,93.41
2018-01-30T22:36:38.424Z,93.00
2018-01-30T22:39:06.825Z,93.48
2018-01-30T22:41:34.635Z,93.20
2018-01-30T22:44:02.345Z,93.82
2018-01-30T22:46:30.098Z,93.53
